sensor_id;sensor_type;location;lat;lon;timestamp;P1;durP1;ratioP1;P2;durP2;ratioP2
20320;SDS011;10318;47.674;9.052;2022-12-20T00:01:31;46.17;;;23.02;;
20320;SDS011;10318;47.674;9.052;2022-12-20T00:03:59;41.97;;;22.55;;
20320;SDS011;10318;47.674;9.052;2022-12-20T00:06:28;39.03;;;21.63;;
20320;SDS011;10318;47.674;9.052;2022-12-20T00:08:58;39.00;;;20.58;;
20320;SDS011;10318;47.674;9.052;2022-12-20T00:11:26;36.75;;;19.85;;
20320;SDS011;10318;47.674;9.052;2022-12-20T00:13:53;40.53;;;20.05;;
20320;SDS011;10318;47.674;9.052;2022-12-20T00:16:27;39.50;;;20.20;;
20320;SDS011;10318;47.674;9.052;2022-12-20T00:18:55;37.40;;;19.30;;
20320;SDS011;10318;47.674;9.052;2022-12-20T00:21:22;39.65;;;20.27;;
20320;SDS011;10318;47.674;9.052;2022-12-20T00:23:48;40.28;;;20.67;;
20320;SDS011;10318;47.674;9.052;2022-12-20T00:26:16;32.58;;;18.60;;
20320;SDS011;10318;47.674;9.052;2022-12-20T00:28:43;35.65;;;18.05;;
20320;SDS011;10318;47.674;9.052;2022-12-20T00:31:11;36.78;;;18.73;;
20320;SDS011;10318;47.674;9.052;2022-12-20T00:33:38;34.47;;;18.80;;
20320;SDS011;10318;47.674;9.052;2022-12-20T00:36:07;44.90;;;21.38;;
20320;SDS011;10318;47.674;9.052;2022-12-20T00:38:34;38.28;;;19.88;;
20320;SDS011;10318;47.674;9.052;2022-12-20T00:41:08;40.78;;;20.23;;
20320;SDS011;10318;47.674;9.052;2022-12-20T00:43:36;41.95;;;21.13;;
20320;SDS011;10318;47.674;9.052;2022-12-20T00:46:03;46.58;;;22.88;;
20320;SDS011;10318;47.674;9.052;2022-12-20T00:48:31;44.40;;;21.50;;
20320;SDS011;10318;47.674;9.052;2022-12-20T00:51:08;32.67;;;18.58;;
20320;SDS011;10318;47.674;9.052;2022-12-20T00:53:35;35.17;;;18.75;;
20320;SDS011;10318;47.674;9.052;2022-12-20T00:56:02;38.35;;;19.33;;
20320;SDS011;10318;47.674;9.052;2022-12-20T00:58:30;33.72;;;18.38;;
20320;SDS011;10318;47.674;9.052;2022-12-20T01:00:57;37.30;;;18.90;;
20320;SDS011;10318;47.674;9.052;2022-12-20T01:03:24;45.75;;;21.05;;
20320;SDS011;10318;47.674;9.052;2022-12-20T01:05:51;39.88;;;19.88;;
20320;SDS011;10318;47.674;9.052;2022-12-20T01:08:18;40.63;;;21.08;;
20320;SDS011;10318;47.674;9.052;2022-12-20T01:10:45;45.45;;;20.88;;
20320;SDS011;10318;47.674;9.052;2022-12-20T01:13:13;48.83;;;22.30;;
20320;SDS011;10318;47.674;9.052;2022-12-20T01:15:40;53.75;;;23.98;;
20320;SDS011;10318;47.674;9.052;2022-12-20T01:18:06;59.25;;;25.23;;
20320;SDS011;10318;47.674;9.052;2022-12-20T01:20:33;58.22;;;24.48;;
20320;SDS011;10318;47.674;9.052;2022-12-20T01:23:00;58.13;;;24.90;;
20320;SDS011;10318;47.674;9.052;2022-12-20T01:25:26;64.65;;;26.25;;
20320;SDS011;10318;47.674;9.052;2022-12-20T01:27:53;67.32;;;27.40;;
20320;SDS011;10318;47.674;9.052;2022-12-20T01:30:20;66.47;;;27.80;;
20320;SDS011;10318;47.674;9.052;2022-12-20T01:32:47;64.68;;;26.17;;
20320;SDS011;10318;47.674;9.052;2022-12-20T01:35:13;73.10;;;27.30;;
20320;SDS011;10318;47.674;9.052;2022-12-20T01:37:41;71.63;;;28.95;;
20320;SDS011;10318;47.674;9.052;2022-12-20T01:40:08;65.57;;;27.90;;
20320;SDS011;10318;47.674;9.052;2022-12-20T01:42:36;60.72;;;25.83;;
20320;SDS011;10318;47.674;9.052;2022-12-20T01:45:02;60.55;;;25.50;;
20320;SDS011;10318;47.674;9.052;2022-12-20T01:47:33;55.95;;;24.38;;
20320;SDS011;10318;47.674;9.052;2022-12-20T01:50:02;61.15;;;24.55;;
20320;SDS011;10318;47.674;9.052;2022-12-20T01:52:32;58.80;;;25.50;;
20320;SDS011;10318;47.674;9.052;2022-12-20T01:55:02;69.78;;;29.08;;
20320;SDS011;10318;47.674;9.052;2022-12-20T01:57:37;74.25;;;29.02;;
20320;SDS011;10318;47.674;9.052;2022-12-20T02:00:05;68.00;;;28.83;;
20320;SDS011;10318;47.674;9.052;2022-12-20T02:02:39;66.32;;;26.77;;
20320;SDS011;10318;47.674;9.052;2022-12-20T02:05:06;72.65;;;28.30;;
20320;SDS011;10318;47.674;9.052;2022-12-20T02:07:33;67.90;;;27.75;;
20320;SDS011;10318;47.674;9.052;2022-12-20T02:10:02;65.32;;;27.35;;
20320;SDS011;10318;47.674;9.052;2022-12-20T02:12:36;69.70;;;28.38;;
20320;SDS011;10318;47.674;9.052;2022-12-20T02:28:51;71.60;;;28.67;;
20320;SDS011;10318;47.674;9.052;2022-12-20T02:31:24;70.30;;;29.27;;
20320;SDS011;10318;47.674;9.052;2022-12-20T02:33:51;68.63;;;30.50;;
20320;SDS011;10318;47.674;9.052;2022-12-20T02:36:20;70.90;;;29.55;;
20320;SDS011;10318;47.674;9.052;2022-12-20T02:38:49;74.13;;;29.95;;
20320;SDS011;10318;47.674;9.052;2022-12-20T02:41:19;79.00;;;33.58;;
20320;SDS011;10318;47.674;9.052;2022-12-20T02:43:48;78.45;;;32.67;;
20320;SDS011;10318;47.674;9.052;2022-12-20T02:46:36;78.75;;;33.05;;
20320;SDS011;10318;47.674;9.052;2022-12-20T02:49:08;85.10;;;35.25;;
20320;SDS011;10318;47.674;9.052;2022-12-20T02:51:37;77.72;;;32.72;;
20320;SDS011;10318;47.674;9.052;2022-12-20T02:54:04;91.28;;;37.03;;
20320;SDS011;10318;47.674;9.052;2022-12-20T02:56:34;87.13;;;35.42;;
20320;SDS011;10318;47.674;9.052;2022-12-20T02:59:17;81.82;;;34.15;;
20320;SDS011;10318;47.674;9.052;2022-12-20T03:01:47;80.30;;;32.72;;
20320;SDS011;10318;47.674;9.052;2022-12-20T03:04:16;85.82;;;35.25;;
20320;SDS011;10318;47.674;9.052;2022-12-20T03:09:22;80.03;;;34.28;;
20320;SDS011;10318;47.674;9.052;2022-12-20T03:11:49;77.00;;;32.65;;
20320;SDS011;10318;47.674;9.052;2022-12-20T03:14:16;74.97;;;32.30;;
20320;SDS011;10318;47.674;9.052;2022-12-20T03:16:44;76.63;;;31.25;;
20320;SDS011;10318;47.674;9.052;2022-12-20T03:19:11;83.43;;;34.72;;
20320;SDS011;10318;47.674;9.052;2022-12-20T03:21:38;80.85;;;32.97;;
20320;SDS011;10318;47.674;9.052;2022-12-20T03:24:04;85.78;;;34.90;;
20320;SDS011;10318;47.674;9.052;2022-12-20T03:26:31;97.05;;;36.65;;
20320;SDS011;10318;47.674;9.052;2022-12-20T03:28:59;84.00;;;35.38;;
20320;SDS011;10318;47.674;9.052;2022-12-20T03:31:27;82.68;;;34.33;;
20320;SDS011;10318;47.674;9.052;2022-12-20T03:33:54;82.45;;;35.00;;
20320;SDS011;10318;47.674;9.052;2022-12-20T03:36:21;68.07;;;31.00;;
20320;SDS011;10318;47.674;9.052;2022-12-20T03:39:00;72.88;;;32.03;;
20320;SDS011;10318;47.674;9.052;2022-12-20T03:41:31;69.80;;;32.20;;
20320;SDS011;10318;47.674;9.052;2022-12-20T03:43:58;65.30;;;29.42;;
20320;SDS011;10318;47.674;9.052;2022-12-20T03:46:26;60.67;;;28.77;;
20320;SDS011;10318;47.674;9.052;2022-12-20T03:48:53;65.07;;;31.23;;
20320;SDS011;10318;47.674;9.052;2022-12-20T03:51:21;65.25;;;28.52;;
20320;SDS011;10318;47.674;9.052;2022-12-20T03:53:48;59.17;;;29.35;;
20320;SDS011;10318;47.674;9.052;2022-12-20T03:56:15;51.10;;;27.83;;
20320;SDS011;10318;47.674;9.052;2022-12-20T03:58:42;50.75;;;27.88;;
20320;SDS011;10318;47.674;9.052;2022-12-20T04:01:20;53.65;;;27.17;;
20320;SDS011;10318;47.674;9.052;2022-12-20T04:03:48;54.25;;;26.73;;
20320;SDS011;10318;47.674;9.052;2022-12-20T04:06:15;46.53;;;25.38;;
20320;SDS011;10318;47.674;9.052;2022-12-20T04:08:43;49.65;;;26.60;;
20320;SDS011;10318;47.674;9.052;2022-12-20T04:11:12;47.45;;;25.58;;
20320;SDS011;10318;47.674;9.052;2022-12-20T04:13:48;42.83;;;23.77;;
20320;SDS011;10318;47.674;9.052;2022-12-20T04:16:16;41.85;;;23.80;;
20320;SDS011;10318;47.674;9.052;2022-12-20T04:18:44;40.90;;;22.65;;
20320;SDS011;10318;47.674;9.052;2022-12-20T04:21:11;43.25;;;24.73;;
20320;SDS011;10318;47.674;9.052;2022-12-20T04:23:42;43.33;;;21.92;;
20320;SDS011;10318;47.674;9.052;2022-12-20T04:26:10;43.30;;;22.55;;
20320;SDS011;10318;47.674;9.052;2022-12-20T04:28:37;38.08;;;20.77;;
20320;SDS011;10318;47.674;9.052;2022-12-20T04:31:07;41.33;;;21.95;;
20320;SDS011;10318;47.674;9.052;2022-12-20T04:33:35;39.15;;;20.83;;
20320;SDS011;10318;47.674;9.052;2022-12-20T04:36:02;43.10;;;21.90;;
20320;SDS011;10318;47.674;9.052;2022-12-20T04:38:31;41.13;;;22.42;;
20320;SDS011;10318;47.674;9.052;2022-12-20T04:40:57;39.25;;;21.23;;
20320;SDS011;10318;47.674;9.052;2022-12-20T04:43:29;39.85;;;21.48;;
20320;SDS011;10318;47.674;9.052;2022-12-20T04:45:57;43.28;;;22.13;;
20320;SDS011;10318;47.674;9.052;2022-12-20T04:48:26;44.40;;;21.50;;
20320;SDS011;10318;47.674;9.052;2022-12-20T04:51:13;41.25;;;22.02;;
20320;SDS011;10318;47.674;9.052;2022-12-20T04:53:41;43.40;;;22.10;;
20320;SDS011;10318;47.674;9.052;2022-12-20T04:56:30;45.28;;;22.75;;
20320;SDS011;10318;47.674;9.052;2022-12-20T04:59:03;41.80;;;21.33;;
20320;SDS011;10318;47.674;9.052;2022-12-20T05:01:29;41.88;;;22.73;;
20320;SDS011;10318;47.674;9.052;2022-12-20T05:03:56;41.10;;;21.27;;
20320;SDS011;10318;47.674;9.052;2022-12-20T05:06:26;45.53;;;20.80;;
20320;SDS011;10318;47.674;9.052;2022-12-20T05:08:54;42.70;;;22.27;;
20320;SDS011;10318;47.674;9.052;2022-12-20T05:11:21;50.47;;;23.85;;
20320;SDS011;10318;47.674;9.052;2022-12-20T05:13:48;44.05;;;23.25;;
20320;SDS011;10318;47.674;9.052;2022-12-20T05:16:16;54.72;;;26.13;;
20320;SDS011;10318;47.674;9.052;2022-12-20T05:18:44;46.97;;;24.33;;
20320;SDS011;10318;47.674;9.052;2022-12-20T05:21:15;50.80;;;24.17;;
20320;SDS011;10318;47.674;9.052;2022-12-20T05:24:01;51.88;;;25.02;;
20320;SDS011;10318;47.674;9.052;2022-12-20T05:26:59;48.92;;;25.35;;
20320;SDS011;10318;47.674;9.052;2022-12-20T05:29:26;49.55;;;25.95;;
20320;SDS011;10318;47.674;9.052;2022-12-20T05:31:53;53.90;;;23.33;;
20320;SDS011;10318;47.674;9.052;2022-12-20T05:34:20;46.30;;;23.45;;
20320;SDS011;10318;47.674;9.052;2022-12-20T05:36:51;51.90;;;25.02;;
20320;SDS011;10318;47.674;9.052;2022-12-20T05:39:19;54.70;;;25.27;;
20320;SDS011;10318;47.674;9.052;2022-12-20T05:41:48;55.10;;;24.48;;
20320;SDS011;10318;47.674;9.052;2022-12-20T05:44:16;52.42;;;24.15;;
20320;SDS011;10318;47.674;9.052;2022-12-20T05:46:46;53.03;;;24.58;;
20320;SDS011;10318;47.674;9.052;2022-12-20T05:49:18;52.55;;;24.73;;
20320;SDS011;10318;47.674;9.052;2022-12-20T05:51:45;49.95;;;23.85;;
20320;SDS011;10318;47.674;9.052;2022-12-20T05:54:20;50.80;;;24.65;;
20320;SDS011;10318;47.674;9.052;2022-12-20T05:56:53;53.53;;;24.35;;
20320;SDS011;10318;47.674;9.052;2022-12-20T05:59:25;55.22;;;24.80;;
20320;SDS011;10318;47.674;9.052;2022-12-20T06:01:52;55.20;;;25.38;;
20320;SDS011;10318;47.674;9.052;2022-12-20T06:04:22;60.35;;;27.48;;
20320;SDS011;10318;47.674;9.052;2022-12-20T06:06:50;68.30;;;30.50;;
20320;SDS011;10318;47.674;9.052;2022-12-20T06:09:18;60.22;;;28.45;;
20320;SDS011;10318;47.674;9.052;2022-12-20T06:11:58;63.47;;;28.38;;
20320;SDS011;10318;47.674;9.052;2022-12-20T06:14:26;61.88;;;28.73;;
20320;SDS011;10318;47.674;9.052;2022-12-20T06:16:54;73.32;;;31.70;;
20320;SDS011;10318;47.674;9.052;2022-12-20T06:19:24;67.75;;;30.42;;
20320;SDS011;10318;47.674;9.052;2022-12-20T06:21:52;66.85;;;31.48;;
20320;SDS011;10318;47.674;9.052;2022-12-20T06:24:28;63.00;;;30.25;;
20320;SDS011;10318;47.674;9.052;2022-12-20T06:26:55;69.28;;;29.08;;
20320;SDS011;10318;47.674;9.052;2022-12-20T06:29:23;66.65;;;30.08;;
20320;SDS011;10318;47.674;9.052;2022-12-20T06:31:59;65.00;;;29.10;;
20320;SDS011;10318;47.674;9.052;2022-12-20T06:34:26;62.33;;;28.17;;
20320;SDS011;10318;47.674;9.052;2022-12-20T06:36:53;70.72;;;31.08;;
20320;SDS011;10318;47.674;9.052;2022-12-20T06:39:24;65.85;;;32.30;;
20320;SDS011;10318;47.674;9.052;2022-12-20T06:42:17;67.93;;;30.52;;
20320;SDS011;10318;47.674;9.052;2022-12-20T06:44:45;74.82;;;32.47;;
20320;SDS011;10318;47.674;9.052;2022-12-20T06:47:11;72.32;;;32.47;;
20320;SDS011;10318;47.674;9.052;2022-12-20T06:49:38;71.55;;;32.15;;
20320;SDS011;10318;47.674;9.052;2022-12-20T06:52:12;68.78;;;30.58;;
20320;SDS011;10318;47.674;9.052;2022-12-20T06:54:46;67.18;;;31.38;;
20320;SDS011;10318;47.674;9.052;2022-12-20T06:57:13;67.50;;;30.80;;
20320;SDS011;10318;47.674;9.052;2022-12-20T06:59:42;75.63;;;32.00;;
20320;SDS011;10318;47.674;9.052;2022-12-20T07:02:12;63.15;;;27.52;;
20320;SDS011;10318;47.674;9.052;2022-12-20T07:04:39;63.70;;;30.23;;
20320;SDS011;10318;47.674;9.052;2022-12-20T07:07:06;59.63;;;28.95;;
20320;SDS011;10318;47.674;9.052;2022-12-20T07:09:33;61.20;;;29.30;;
20320;SDS011;10318;47.674;9.052;2022-12-20T07:11:59;52.28;;;27.50;;
20320;SDS011;10318;47.674;9.052;2022-12-20T07:14:26;57.35;;;26.63;;
20320;SDS011;10318;47.674;9.052;2022-12-20T07:16:53;53.55;;;26.95;;
20320;SDS011;10318;47.674;9.052;2022-12-20T07:19:20;59.20;;;28.23;;
20320;SDS011;10318;47.674;9.052;2022-12-20T07:21:47;60.17;;;27.83;;
20320;SDS011;10318;47.674;9.052;2022-12-20T07:24:14;58.65;;;27.60;;
20320;SDS011;10318;47.674;9.052;2022-12-20T07:26:42;64.55;;;27.77;;
20320;SDS011;10318;47.674;9.052;2022-12-20T07:29:09;61.78;;;29.08;;
20320;SDS011;10318;47.674;9.052;2022-12-20T07:31:41;58.25;;;28.38;;
20320;SDS011;10318;47.674;9.052;2022-12-20T07:34:09;62.85;;;29.40;;
20320;SDS011;10318;47.674;9.052;2022-12-20T07:36:36;62.60;;;28.05;;
20320;SDS011;10318;47.674;9.052;2022-12-20T07:39:03;60.53;;;26.70;;
20320;SDS011;10318;47.674;9.052;2022-12-20T07:41:29;54.30;;;27.33;;
20320;SDS011;10318;47.674;9.052;2022-12-20T07:43:56;56.05;;;25.98;;
20320;SDS011;10318;47.674;9.052;2022-12-20T07:46:24;48.33;;;24.17;;
20320;SDS011;10318;47.674;9.052;2022-12-20T07:48:51;52.60;;;25.73;;
20320;SDS011;10318;47.674;9.052;2022-12-20T07:51:28;53.70;;;27.60;;
20320;SDS011;10318;47.674;9.052;2022-12-20T07:53:58;49.25;;;25.05;;
20320;SDS011;10318;47.674;9.052;2022-12-20T07:56:25;53.17;;;26.58;;
20320;SDS011;10318;47.674;9.052;2022-12-20T07:58:53;47.97;;;25.75;;
20320;SDS011;10318;47.674;9.052;2022-12-20T08:01:24;51.85;;;25.80;;
20320;SDS011;10318;47.674;9.052;2022-12-20T08:03:54;52.50;;;26.58;;
20320;SDS011;10318;47.674;9.052;2022-12-20T08:06:22;60.22;;;27.92;;
20320;SDS011;10318;47.674;9.052;2022-12-20T08:08:51;56.90;;;27.00;;
20320;SDS011;10318;47.674;9.052;2022-12-20T08:11:19;59.65;;;26.70;;
20320;SDS011;10318;47.674;9.052;2022-12-20T08:13:47;62.47;;;27.20;;
20320;SDS011;10318;47.674;9.052;2022-12-20T08:16:22;62.30;;;27.58;;
20320;SDS011;10318;47.674;9.052;2022-12-20T08:18:49;61.53;;;27.75;;
20320;SDS011;10318;47.674;9.052;2022-12-20T08:21:16;69.75;;;28.98;;
20320;SDS011;10318;47.674;9.052;2022-12-20T08:23:42;65.32;;;28.63;;
20320;SDS011;10318;47.674;9.052;2022-12-20T08:26:09;70.05;;;28.65;;
20320;SDS011;10318;47.674;9.052;2022-12-20T08:28:36;72.47;;;30.75;;
20320;SDS011;10318;47.674;9.052;2022-12-20T08:31:04;71.28;;;30.95;;
20320;SDS011;10318;47.674;9.052;2022-12-20T08:33:31;74.75;;;27.38;;
20320;SDS011;10318;47.674;9.052;2022-12-20T08:35:59;68.20;;;27.77;;
20320;SDS011;10318;47.674;9.052;2022-12-20T08:38:28;87.53;;;32.55;;
20320;SDS011;10318;47.674;9.052;2022-12-20T08:43:52;72.72;;;30.02;;
20320;SDS011;10318;47.674;9.052;2022-12-20T08:46:18;75.10;;;31.38;;
20320;SDS011;10318;47.674;9.052;2022-12-20T08:48:45;74.50;;;30.27;;
20320;SDS011;10318;47.674;9.052;2022-12-20T08:51:12;64.90;;;27.90;;
20320;SDS011;10318;47.674;9.052;2022-12-20T08:53:38;66.35;;;28.15;;
20320;SDS011;10318;47.674;9.052;2022-12-20T08:56:06;69.13;;;28.75;;
20320;SDS011;10318;47.674;9.052;2022-12-20T08:58:33;67.43;;;28.35;;
20320;SDS011;10318;47.674;9.052;2022-12-20T09:01:00;60.72;;;27.35;;
20320;SDS011;10318;47.674;9.052;2022-12-20T09:03:32;65.70;;;26.90;;
20320;SDS011;10318;47.674;9.052;2022-12-20T09:05:59;52.13;;;25.13;;
20320;SDS011;10318;47.674;9.052;2022-12-20T09:08:26;66.30;;;28.35;;
20320;SDS011;10318;47.674;9.052;2022-12-20T09:10:53;58.33;;;28.08;;
20320;SDS011;10318;47.674;9.052;2022-12-20T09:13:19;61.17;;;29.13;;
20320;SDS011;10318;47.674;9.052;2022-12-20T09:15:47;58.75;;;26.73;;
20320;SDS011;10318;47.674;9.052;2022-12-20T09:18:13;64.68;;;27.10;;
20320;SDS011;10318;47.674;9.052;2022-12-20T09:20:43;66.82;;;29.25;;
20320;SDS011;10318;47.674;9.052;2022-12-20T09:23:10;66.45;;;28.30;;
20320;SDS011;10318;47.674;9.052;2022-12-20T09:25:37;66.53;;;29.77;;
20320;SDS011;10318;47.674;9.052;2022-12-20T09:28:04;66.20;;;29.23;;
20320;SDS011;10318;47.674;9.052;2022-12-20T09:30:31;63.28;;;30.13;;
20320;SDS011;10318;47.674;9.052;2022-12-20T09:32:58;65.57;;;28.88;;
20320;SDS011;10318;47.674;9.052;2022-12-20T09:35:36;54.63;;;25.73;;
20320;SDS011;10318;47.674;9.052;2022-12-20T09:38:03;62.65;;;28.35;;
20320;SDS011;10318;47.674;9.052;2022-12-20T09:40:31;72.55;;;30.58;;
20320;SDS011;10318;47.674;9.052;2022-12-20T09:42:58;72.32;;;31.85;;
20320;SDS011;10318;47.674;9.052;2022-12-20T09:45:26;78.75;;;30.98;;
20320;SDS011;10318;47.674;9.052;2022-12-20T09:47:53;82.78;;;35.17;;
20320;SDS011;10318;47.674;9.052;2022-12-20T09:50:22;87.05;;;33.78;;
20320;SDS011;10318;47.674;9.052;2022-12-20T09:55:48;76.53;;;32.17;;
20320;SDS011;10318;47.674;9.052;2022-12-20T09:58:29;81.63;;;33.83;;
20320;SDS011;10318;47.674;9.052;2022-12-20T10:01:04;81.50;;;33.35;;
20320;SDS011;10318;47.674;9.052;2022-12-20T10:03:40;79.55;;;31.80;;
20320;SDS011;10318;47.674;9.052;2022-12-20T10:06:12;81.88;;;33.03;;
20320;SDS011;10318;47.674;9.052;2022-12-20T10:08:43;74.35;;;32.63;;
20320;SDS011;10318;47.674;9.052;2022-12-20T10:11:13;77.28;;;33.92;;
20320;SDS011;10318;47.674;9.052;2022-12-20T10:21:20;64.38;;;27.45;;
20320;SDS011;10318;47.674;9.052;2022-12-20T10:26:25;63.15;;;29.20;;
20320;SDS011;10318;47.674;9.052;2022-12-20T10:28:51;60.72;;;28.67;;
20320;SDS011;10318;47.674;9.052;2022-12-20T10:31:20;66.80;;;30.88;;
20320;SDS011;10318;47.674;9.052;2022-12-20T10:33:47;57.17;;;28.05;;
20320;SDS011;10318;47.674;9.052;2022-12-20T10:38:56;58.60;;;27.50;;
20320;SDS011;10318;47.674;9.052;2022-12-20T10:41:24;61.22;;;27.88;;
20320;SDS011;10318;47.674;9.052;2022-12-20T10:43:53;64.10;;;28.92;;
20320;SDS011;10318;47.674;9.052;2022-12-20T10:46:21;66.35;;;30.33;;
20320;SDS011;10318;47.674;9.052;2022-12-20T10:48:49;66.18;;;30.13;;
20320;SDS011;10318;47.674;9.052;2022-12-20T10:51:18;69.28;;;31.70;;
20320;SDS011;10318;47.674;9.052;2022-12-20T10:53:58;59.47;;;29.05;;
20320;SDS011;10318;47.674;9.052;2022-12-20T10:56:27;58.90;;;30.73;;
20320;SDS011;10318;47.674;9.052;2022-12-20T11:01:34;62.92;;;31.33;;
20320;SDS011;10318;47.674;9.052;2022-12-20T11:04:06;65.03;;;31.25;;
20320;SDS011;10318;47.674;9.052;2022-12-20T11:14:26;61.00;;;30.45;;
20320;SDS011;10318;47.674;9.052;2022-12-20T11:32:27;72.55;;;31.58;;
20320;SDS011;10318;47.674;9.052;2022-12-20T11:35:10;72.15;;;34.00;;
20320;SDS011;10318;47.674;9.052;2022-12-20T11:38:22;71.00;;;34.17;;
20320;SDS011;10318;47.674;9.052;2022-12-20T11:48:50;78.47;;;36.20;;
20320;SDS011;10318;47.674;9.052;2022-12-20T11:51:24;75.45;;;35.72;;
20320;SDS011;10318;47.674;9.052;2022-12-20T11:56:25;59.47;;;32.30;;
20320;SDS011;10318;47.674;9.052;2022-12-20T11:58:58;65.97;;;32.65;;
20320;SDS011;10318;47.674;9.052;2022-12-20T12:01:35;66.32;;;33.25;;
20320;SDS011;10318;47.674;9.052;2022-12-20T12:04:08;61.13;;;31.77;;
20320;SDS011;10318;47.674;9.052;2022-12-20T12:06:40;65.22;;;31.95;;
20320;SDS011;10318;47.674;9.052;2022-12-20T12:09:14;64.07;;;32.33;;
20320;SDS011;10318;47.674;9.052;2022-12-20T12:11:44;66.38;;;33.17;;
20320;SDS011;10318;47.674;9.052;2022-12-20T12:17:41;65.57;;;31.13;;
20320;SDS011;10318;47.674;9.052;2022-12-20T12:20:13;60.95;;;31.00;;
20320;SDS011;10318;47.674;9.052;2022-12-20T12:22:44;69.30;;;33.08;;
20320;SDS011;10318;47.674;9.052;2022-12-20T12:25:13;56.92;;;29.63;;
20320;SDS011;10318;47.674;9.052;2022-12-20T12:27:41;62.28;;;32.25;;
20320;SDS011;10318;47.674;9.052;2022-12-20T12:30:12;64.35;;;33.05;;
20320;SDS011;10318;47.674;9.052;2022-12-20T12:36:01;67.40;;;32.72;;
20320;SDS011;10318;47.674;9.052;2022-12-20T12:38:23;59.00;;;30.40;;
20320;SDS011;10318;47.674;9.052;2022-12-20T12:43:30;66.70;;;31.20;;
20320;SDS011;10318;47.674;9.052;2022-12-20T12:45:59;62.63;;;32.65;;
20320;SDS011;10318;47.674;9.052;2022-12-20T12:50:54;57.03;;;30.50;;
20320;SDS011;10318;47.674;9.052;2022-12-20T12:55:49;60.45;;;31.20;;
20320;SDS011;10318;47.674;9.052;2022-12-20T13:00:46;56.78;;;30.27;;
20320;SDS011;10318;47.674;9.052;2022-12-20T13:03:15;58.22;;;30.05;;
20320;SDS011;10318;47.674;9.052;2022-12-20T13:05:42;52.10;;;29.08;;
20320;SDS011;10318;47.674;9.052;2022-12-20T13:08:15;56.50;;;29.58;;
20320;SDS011;10318;47.674;9.052;2022-12-20T13:13:13;55.03;;;30.65;;
20320;SDS011;10318;47.674;9.052;2022-12-20T13:15:47;51.55;;;29.67;;
20320;SDS011;10318;47.674;9.052;2022-12-20T13:20:41;55.97;;;29.27;;
20320;SDS011;10318;47.674;9.052;2022-12-20T13:25:38;63.35;;;31.30;;
20320;SDS011;10318;47.674;9.052;2022-12-20T13:38:36;53.58;;;28.17;;
20320;SDS011;10318;47.674;9.052;2022-12-20T13:43:48;51.38;;;28.90;;
20320;SDS011;10318;47.674;9.052;2022-12-20T13:48:52;57.20;;;31.42;;
20320;SDS011;10318;47.674;9.052;2022-12-20T13:51:22;49.88;;;28.95;;
20320;SDS011;10318;47.674;9.052;2022-12-20T13:56:53;54.28;;;28.67;;
20320;SDS011;10318;47.674;9.052;2022-12-20T13:59:22;53.53;;;28.58;;
20320;SDS011;10318;47.674;9.052;2022-12-20T14:01:54;51.55;;;28.90;;
20320;SDS011;10318;47.674;9.052;2022-12-20T14:04:22;49.78;;;27.83;;
20320;SDS011;10318;47.674;9.052;2022-12-20T14:06:55;44.83;;;24.98;;
20320;SDS011;10318;47.674;9.052;2022-12-20T14:09:35;45.80;;;28.15;;
20320;SDS011;10318;47.674;9.052;2022-12-20T14:12:03;44.13;;;25.95;;
20320;SDS011;10318;47.674;9.052;2022-12-20T14:14:35;48.13;;;27.27;;
20320;SDS011;10318;47.674;9.052;2022-12-20T14:20:00;38.47;;;23.55;;
20320;SDS011;10318;47.674;9.052;2022-12-20T14:22:27;40.95;;;24.10;;
20320;SDS011;10318;47.674;9.052;2022-12-20T14:24:54;37.15;;;22.25;;
20320;SDS011;10318;47.674;9.052;2022-12-20T14:27:21;36.13;;;22.05;;
20320;SDS011;10318;47.674;9.052;2022-12-20T14:29:47;36.72;;;20.77;;
20320;SDS011;10318;47.674;9.052;2022-12-20T14:32:18;34.25;;;20.83;;
20320;SDS011;10318;47.674;9.052;2022-12-20T14:34:45;33.85;;;20.98;;
20320;SDS011;10318;47.674;9.052;2022-12-20T14:37:25;35.80;;;21.48;;
20320;SDS011;10318;47.674;9.052;2022-12-20T14:42:35;46.63;;;26.85;;
20320;SDS011;10318;47.674;9.052;2022-12-20T14:45:03;54.80;;;29.40;;
20320;SDS011;10318;47.674;9.052;2022-12-20T14:47:30;54.53;;;29.65;;
20320;SDS011;10318;47.674;9.052;2022-12-20T14:50:01;60.25;;;31.40;;
20320;SDS011;10318;47.674;9.052;2022-12-20T14:55:03;41.85;;;23.90;;
20320;SDS011;10318;47.674;9.052;2022-12-20T15:02:37;33.70;;;19.35;;
20320;SDS011;10318;47.674;9.052;2022-12-20T15:07:50;27.27;;;18.10;;
20320;SDS011;10318;47.674;9.052;2022-12-20T15:10:17;31.65;;;18.48;;
20320;SDS011;10318;47.674;9.052;2022-12-20T15:12:44;31.08;;;18.63;;
20320;SDS011;10318;47.674;9.052;2022-12-20T15:15:14;33.10;;;19.27;;
20320;SDS011;10318;47.674;9.052;2022-12-20T15:17:57;32.80;;;19.38;;
20320;SDS011;10318;47.674;9.052;2022-12-20T15:20:24;30.88;;;19.10;;
20320;SDS011;10318;47.674;9.052;2022-12-20T15:22:50;32.33;;;20.25;;
20320;SDS011;10318;47.674;9.052;2022-12-20T15:25:17;28.13;;;18.85;;
20320;SDS011;10318;47.674;9.052;2022-12-20T15:27:44;34.97;;;20.20;;
20320;SDS011;10318;47.674;9.052;2022-12-20T15:30:11;30.10;;;18.63;;
20320;SDS011;10318;47.674;9.052;2022-12-20T15:32:41;37.13;;;21.55;;
20320;SDS011;10318;47.674;9.052;2022-12-20T15:35:21;44.33;;;24.88;;
20320;SDS011;10318;47.674;9.052;2022-12-20T15:37:47;39.40;;;21.55;;
20320;SDS011;10318;47.674;9.052;2022-12-20T15:40:14;39.55;;;21.40;;
20320;SDS011;10318;47.674;9.052;2022-12-20T15:42:41;43.58;;;23.70;;
20320;SDS011;10318;47.674;9.052;2022-12-20T15:45:12;40.75;;;22.75;;
20320;SDS011;10318;47.674;9.052;2022-12-20T15:47:39;36.58;;;20.15;;
20320;SDS011;10318;47.674;9.052;2022-12-20T15:50:06;35.22;;;20.30;;
20320;SDS011;10318;47.674;9.052;2022-12-20T15:52:33;28.35;;;16.92;;
20320;SDS011;10318;47.674;9.052;2022-12-20T15:55:00;32.75;;;18.48;;
20320;SDS011;10318;47.674;9.052;2022-12-20T15:57:26;34.85;;;21.00;;
20320;SDS011;10318;47.674;9.052;2022-12-20T15:59:54;26.15;;;16.60;;
20320;SDS011;10318;47.674;9.052;2022-12-20T16:02:36;23.52;;;13.95;;
20320;SDS011;10318;47.674;9.052;2022-12-20T16:05:03;21.38;;;13.77;;
20320;SDS011;10318;47.674;9.052;2022-12-20T16:07:30;23.23;;;15.55;;
20320;SDS011;10318;47.674;9.052;2022-12-20T16:09:57;22.42;;;14.98;;
20320;SDS011;10318;47.674;9.052;2022-12-20T16:12:24;23.73;;;15.95;;
20320;SDS011;10318;47.674;9.052;2022-12-20T16:14:52;24.42;;;15.57;;
20320;SDS011;10318;47.674;9.052;2022-12-20T16:17:19;21.90;;;14.38;;
20320;SDS011;10318;47.674;9.052;2022-12-20T16:19:45;21.25;;;13.70;;
20320;SDS011;10318;47.674;9.052;2022-12-20T16:22:16;21.33;;;12.68;;
20320;SDS011;10318;47.674;9.052;2022-12-20T16:24:43;21.60;;;12.77;;
20320;SDS011;10318;47.674;9.052;2022-12-20T16:27:09;19.42;;;11.55;;
20320;SDS011;10318;47.674;9.052;2022-12-20T16:29:36;14.88;;;10.65;;
20320;SDS011;10318;47.674;9.052;2022-12-20T16:32:08;18.42;;;12.10;;
20320;SDS011;10318;47.674;9.052;2022-12-20T16:34:38;19.63;;;12.52;;
20320;SDS011;10318;47.674;9.052;2022-12-20T16:37:04;19.20;;;13.15;;
20320;SDS011;10318;47.674;9.052;2022-12-20T16:39:31;21.27;;;12.23;;
20320;SDS011;10318;47.674;9.052;2022-12-20T16:41:58;22.35;;;13.52;;
20320;SDS011;10318;47.674;9.052;2022-12-20T16:44:25;20.55;;;12.98;;